Tuscarora Heights, Pennsylvania
Current Conditions -  °F | °C
As of 9:53 AM on Friday 19 Dec 2014 (Local Time) from KHGR Reporting Station
Overcast Overcast  
Wind Chill: 26°   Ceiling: 2900
Heat Index: 35°   Visibility: 10mi
Dew Point: 23°   Wind: 15mph
Humidity: 61%   Direction: 300°WNW
Pressure: 30.14"   Gusts: NA
Location:  39.9814°N, 77.8809°W
Report Text: KHGR 191453Z 30013KT 10SM OVC029 02/M05 A3014 RMK AO2 SLP224 T00171050 50011
Loading
Personal Weather Stations






























Interactive Weather Map New forecast layout! Learn more

10-Day Weather Forecast

Advertisements
Track Severe Weather on mobile